Flight Track Log - Related Links

Times and Time Zones

All times are in EDT time to prevent confusion due to time zone crossing. See the WBR2634 flight status page for this flight to view local times or setup timezone preferences in your user account.

Time Position Orientation Groundspeed Altitude Reporting Facility
EDT Latitude Longitude Course Direction KTS MPH feet Rate Location/Type
Wed 05:42:59 PM 40.8250 -91.0617 73° East 124 143 2,600  Level Chicago Center
Wed 05:44:00 PM 40.8623 -90.7753 57° Northeast  Level FlightAware Approximate
Wed 05:44:01 PM 40.8381 -91.0128 71° East 118 136 3,400  Level Chicago Center
Wed 05:45:00 PM 40.8747 -90.7179 72° East  Level FlightAware Approximate
Wed 05:45:03 PM 40.8486 -90.9686 72° East 122 140 4,100  Level Chicago Center
Wed 05:46:00 PM 40.8888 -90.6599 73° East  Level FlightAware Approximate
Wed 05:46:05 PM 40.8608 -90.9269 69° East 122 140 4,700  Level Chicago Center
Wed 05:47:00 PM 40.9023 -90.6017 73° East  Level FlightAware Approximate
Wed 05:47:07 PM 40.8697 -90.8825 75° East 125 144 5,400  Level Chicago Center
Wed 05:48:00 PM 40.9158 -90.5435 73° East  Level FlightAware Approximate
Wed 05:48:10 PM 40.8808 -90.8364 72° East 129 148 6,000  Level Chicago Center
Wed 05:49:12 PM 40.8908 -90.7867 75° East 136 157 6,600 629 Climbing Chicago Center
Wed 05:50:14 PM 40.9025 -90.7267 76° East 141 162 7,300 581 Climbing Chicago Center
Wed 05:51:16 PM 40.9144 -90.6731 74° East 149 171 7,800 484 Climbing Chicago Center
Wed 05:52:18 PM 40.9253 -90.6217 74° East 148 170 8,300 435 Climbing Chicago Center
Wed 05:53:20 PM 40.9369 -90.5681 74° East 151 174 8,700 290 Climbing Chicago Center
Wed 05:54:22 PM 40.9531 -90.5103 70° East 164 189 8,900 145 Climbing Chicago Center
Wed 05:55:24 PM 40.9675 -90.4506 72° East 170 196 9,000 48 Climbing Chicago Center
Wed 05:56:26 PM 40.9819 -90.3914 72° East 169 194 9,000  Level Chicago Center
Wed 05:57:28 PM 40.9986 -90.3228 72° East 165 190 9,000  Level Chicago Center
Wed 05:58:31 PM 41.0106 -90.2653 75° East 163 188 9,000  Level Chicago Center
Wed 05:59:33 PM 41.0233 -90.2072 74° East 164 189 9,000 48 Level Chicago Center
Wed 06:00:35 PM 41.0353 -90.1503 74° East 162 186 9,100 48 Climbing Chicago Center
Wed 06:01:37 PM 41.0483 -90.0925 73° East 164 189 9,100 -48 Level Chicago Center
Wed 06:02:39 PM 41.0614 -90.0364 73° East 161 185 9,000 -48 Descending Chicago Center
Wed 06:03:41 PM 41.0778 -89.9667 73° East 164 189 9,000  Level Chicago Center
Wed 06:04:43 PM 41.0925 -89.9092 71° East 164 189 9,000  Level Chicago Center
Wed 06:05:45 PM 41.1053 -89.8511 74° East 164 189 9,000  Level Chicago Center
Wed 06:06:47 PM 41.1175 -89.7922 75° East 165 190 9,000  Level Chicago Center
Wed 06:07:50 PM 41.1294 -89.7342 75° East 165 190 9,000  Level Chicago Center
Wed 06:08:52 PM 41.1422 -89.6756 74° East 165 190 9,000 -48 Level Chicago Center
Wed 06:09:54 PM 41.1561 -89.6186 72° East 163 188 8,900 -48 Descending Chicago Center
Wed 06:10:56 PM 41.1750 -89.5503 70° East 164 189 8,900  Level Chicago Center
Wed 06:11:58 PM 41.2039 -89.5044 50° Northeast 162 186 8,900  Level Chicago Center
Wed 06:13:00 PM 41.2272 -89.4522 59° Northeast 163 188 8,900  Level Chicago Center
Wed 06:14:02 PM 41.2500 -89.4011 59° Northeast 161 185 8,900 48 Level Chicago Center
Wed 06:15:04 PM 41.2728 -89.3514 59° Northeast 158 182 9,000 48 Climbing Chicago Center
Wed 06:16:06 PM 41.2975 -89.3006 57° Northeast 161 185 9,000  Level Chicago Center
Wed 06:17:08 PM 41.3244 -89.2403 59° Northeast 159 183 9,000  Level Chicago Center
Wed 06:18:11 PM 41.3475 -89.1922 57° Northeast 160 184 9,000  Level Chicago Center
Wed 06:19:13 PM 41.3708 -89.1411 59° Northeast 161 185 9,000  Level Chicago Center
Wed 06:20:15 PM 41.3936 -89.0900 59° Northeast 161 185 9,000  Level Chicago Center
Wed 06:21:17 PM 41.4231 -89.0317 56° Northeast 160 184 9,000 -97 Level Chicago Center
Wed 06:22:19 PM 41.4472 -88.9814 57° Northeast 162 186 8,800 -339 Descending Chicago Center
Wed 06:23:21 PM 41.4722 -88.9253 59° Northeast 171 197 8,300 -387 Descending Chicago Center
Wed 06:24:23 PM 41.4972 -88.8739 57° Northeast 170 196 8,000 -194 Descending Chicago Center
Wed 06:25:25 PM 41.5222 -88.8247 56° Northeast 162 186 7,900 48 Descending Chicago Center
Wed 06:26:27 PM 41.5519 -88.7678 55° Northeast 158 182 8,100 48 Climbing Chicago Center
Wed 06:27:29 PM 41.5786 -88.7244 51° Northeast 152 175 8,000  Descending Chicago Center
Wed 06:28:31 PM 41.5997 -88.6744 61° Northeast 154 177 8,100 48 Climbing Chicago Center
Wed 06:29:34 PM 41.6183 -88.6217 65° Northeast 157 181 8,100  Level Chicago Center
Wed 06:30:36 PM 41.6378 -88.5700 63° Northeast 157 181 8,100 -48 Level Chicago Center
Wed 06:31:38 PM 41.6606 -88.5056 65° Northeast 159 183 8,000 -339 Descending Chicago Center
Wed 06:32:40 PM 41.6814 -88.4494 64° Northeast 170 196 7,400 -435 Descending Chicago Center
Wed 06:33:42 PM 41.7133 -88.4156 38° Northeast 165 190 7,100 -194 Descending Chicago Center
Wed 06:34:44 PM 41.7569 -88.4292 347° North 161 185 7,000 -97 Descending Chicago Center
Wed 06:35:46 PM 41.7969 -88.4406 348° North 150 173 6,900  Descending Chicago Center
Wed 06:36:48 PM 41.8356 -88.4483 351° North 141 162 7,000  Climbing Chicago Center
Wed 06:37:50 PM 41.8783 -88.4544 354° North 139 160 6,900 -240 Descending Chicago Center
Wed 06:38:53 PM 41.9194 -88.4283 25° Northeast 152 175 6,500 -528 Descending Chicago Center
Wed 06:39:55 PM 41.9572 -88.3922 35° Northeast 168 193 5,800 -528 Descending Chicago Center
Wed 06:40:58 PM 41.9683 -88.3289 77° East 185 213 5,400 -339 Descending Chicago Center
Wed 06:41:59 PM 41.9675 -88.2683 91° East 171 197 5,100 -439 Descending Chicago Center
Wed 06:43:01 PM 41.9675 -88.1964 90° East 162 186 4,500 -677 Descending Chicago Center
Wed 06:44:03 PM 41.9675 -88.1333 90° East 165 190 3,700 -823 Descending Chicago Center
Wed 06:45:05 PM 41.9683 -88.0697 89° East 168 193 2,800 -871 Descending Chicago Center
Wed 06:46:07 PM 41.9681 -88.0083 90° East 168 193 1,900 -923 Descending Chicago Center
Wed 06:47:15 PM 41.9667 -87.9333 91° East 148 170 800 -971 Descending Chicago TRACON
Wed 06:49:00 PM 41.9667 -87.9000 78° East  Level FlightAware Approximate

Login

Don't have an account? Register now (free) for customized features, flight alerts, and more!